sensor_id;sensor_type;location;lat;lon;timestamp;P1;durP1;ratioP1;P2;durP2;ratioP2
74528;SDS011;63009;52.584;5.932;2023-09-18T00:00:10;29.13;;;18.73;;
74528;SDS011;63009;52.584;5.932;2023-09-18T00:02:37;28.75;;;18.50;;
74528;SDS011;63009;52.584;5.932;2023-09-18T00:05:03;28.60;;;18.85;;
74528;SDS011;63009;52.584;5.932;2023-09-18T00:07:29;29.92;;;20.52;;
74528;SDS011;63009;52.584;5.932;2023-09-18T00:09:54;29.42;;;18.17;;
74528;SDS011;63009;52.584;5.932;2023-09-18T00:12:19;28.58;;;17.77;;
74528;SDS011;63009;52.584;5.932;2023-09-18T00:14:47;25.90;;;18.40;;
74528;SDS011;63009;52.584;5.932;2023-09-18T00:17:14;27.63;;;18.45;;
74528;SDS011;63009;52.584;5.932;2023-09-18T00:19:39;28.63;;;17.83;;
74528;SDS011;63009;52.584;5.932;2023-09-18T00:22:05;27.23;;;19.77;;
74528;SDS011;63009;52.584;5.932;2023-09-18T00:24:31;28.75;;;18.35;;
74528;SDS011;63009;52.584;5.932;2023-09-18T00:26:56;26.77;;;18.95;;
74528;SDS011;63009;52.584;5.932;2023-09-18T00:29:22;29.55;;;18.05;;
74528;SDS011;63009;52.584;5.932;2023-09-18T00:31:47;29.07;;;18.27;;
74528;SDS011;63009;52.584;5.932;2023-09-18T00:34:13;30.57;;;20.13;;
74528;SDS011;63009;52.584;5.932;2023-09-18T00:36:38;31.40;;;17.97;;
74528;SDS011;63009;52.584;5.932;2023-09-18T00:39:03;29.13;;;19.83;;
74528;SDS011;63009;52.584;5.932;2023-09-18T00:41:29;28.80;;;17.52;;
74528;SDS011;63009;52.584;5.932;2023-09-18T00:43:54;30.20;;;19.70;;
74528;SDS011;63009;52.584;5.932;2023-09-18T00:46:19;27.93;;;18.27;;
74528;SDS011;63009;52.584;5.932;2023-09-18T00:48:45;31.02;;;19.27;;
74528;SDS011;63009;52.584;5.932;2023-09-18T00:51:11;29.75;;;20.38;;
74528;SDS011;63009;52.584;5.932;2023-09-18T00:53:38;30.70;;;20.75;;
74528;SDS011;63009;52.584;5.932;2023-09-18T00:56:04;29.30;;;19.30;;
74528;SDS011;63009;52.584;5.932;2023-09-18T00:58:30;32.25;;;21.70;;
74528;SDS011;63009;52.584;5.932;2023-09-18T01:00:55;29.42;;;19.88;;
74528;SDS011;63009;52.584;5.932;2023-09-18T01:03:21;32.03;;;19.15;;
74528;SDS011;63009;52.584;5.932;2023-09-18T01:05:47;31.65;;;20.25;;
74528;SDS011;63009;52.584;5.932;2023-09-18T01:08:12;28.70;;;19.43;;
74528;SDS011;63009;52.584;5.932;2023-09-18T01:13:45;32.47;;;21.40;;
74528;SDS011;63009;52.584;5.932;2023-09-18T01:16:27;29.27;;;20.73;;
74528;SDS011;63009;52.584;5.932;2023-09-18T01:18:59;29.92;;;19.65;;
74528;SDS011;63009;52.584;5.932;2023-09-18T01:21:28;30.42;;;20.50;;
74528;SDS011;63009;52.584;5.932;2023-09-18T01:23:53;30.40;;;19.93;;
74528;SDS011;63009;52.584;5.932;2023-09-18T01:26:18;27.03;;;20.37;;
74528;SDS011;63009;52.584;5.932;2023-09-18T01:28:43;28.45;;;19.48;;
74528;SDS011;63009;52.584;5.932;2023-09-18T01:31:09;27.43;;;17.67;;
74528;SDS011;63009;52.584;5.932;2023-09-18T01:33:34;28.38;;;20.00;;
74528;SDS011;63009;52.584;5.932;2023-09-18T01:36:01;29.90;;;18.60;;
74528;SDS011;63009;52.584;5.932;2023-09-18T01:38:28;27.45;;;19.67;;
74528;SDS011;63009;52.584;5.932;2023-09-18T01:40:53;27.10;;;17.98;;
74528;SDS011;63009;52.584;5.932;2023-09-18T01:43:19;25.80;;;19.02;;
74528;SDS011;63009;52.584;5.932;2023-09-18T01:45:45;26.42;;;17.98;;
74528;SDS011;63009;52.584;5.932;2023-09-18T01:48:11;25.65;;;17.23;;
74528;SDS011;63009;52.584;5.932;2023-09-18T01:50:36;25.27;;;18.70;;
74528;SDS011;63009;52.584;5.932;2023-09-18T01:53:02;26.40;;;18.63;;
74528;SDS011;63009;52.584;5.932;2023-09-18T01:55:28;25.00;;;18.40;;
74528;SDS011;63009;52.584;5.932;2023-09-18T01:57:54;24.70;;;17.40;;
74528;SDS011;63009;52.584;5.932;2023-09-18T02:00:20;27.52;;;17.40;;
74528;SDS011;63009;52.584;5.932;2023-09-18T02:02:46;27.20;;;19.00;;
74528;SDS011;63009;52.584;5.932;2023-09-18T02:05:11;26.50;;;18.23;;
74528;SDS011;63009;52.584;5.932;2023-09-18T02:07:36;23.35;;;17.23;;
74528;SDS011;63009;52.584;5.932;2023-09-18T02:10:02;25.20;;;17.30;;
74528;SDS011;63009;52.584;5.932;2023-09-18T02:12:28;26.02;;;18.60;;
74528;SDS011;63009;52.584;5.932;2023-09-18T02:14:53;25.43;;;17.33;;
74528;SDS011;63009;52.584;5.932;2023-09-18T02:17:18;25.00;;;17.07;;
74528;SDS011;63009;52.584;5.932;2023-09-18T02:19:45;26.42;;;18.38;;
74528;SDS011;63009;52.584;5.932;2023-09-18T02:22:10;26.02;;;17.63;;
74528;SDS011;63009;52.584;5.932;2023-09-18T02:24:36;26.83;;;18.50;;
74528;SDS011;63009;52.584;5.932;2023-09-18T02:27:03;23.90;;;16.27;;
74528;SDS011;63009;52.584;5.932;2023-09-18T02:29:30;27.15;;;19.00;;
74528;SDS011;63009;52.584;5.932;2023-09-18T02:31:55;26.63;;;17.80;;
74528;SDS011;63009;52.584;5.932;2023-09-18T02:34:20;23.42;;;16.05;;
74528;SDS011;63009;52.584;5.932;2023-09-18T02:36:46;25.63;;;18.37;;
74528;SDS011;63009;52.584;5.932;2023-09-18T02:39:12;26.88;;;18.30;;
74528;SDS011;63009;52.584;5.932;2023-09-18T02:41:37;24.20;;;16.80;;
74528;SDS011;63009;52.584;5.932;2023-09-18T02:44:03;25.60;;;16.17;;
74528;SDS011;63009;52.584;5.932;2023-09-18T02:46:29;23.45;;;17.02;;
74528;SDS011;63009;52.584;5.932;2023-09-18T02:48:54;25.58;;;19.00;;
74528;SDS011;63009;52.584;5.932;2023-09-18T02:51:19;26.77;;;18.10;;
74528;SDS011;63009;52.584;5.932;2023-09-18T02:53:45;25.63;;;18.77;;
74528;SDS011;63009;52.584;5.932;2023-09-18T02:56:10;24.57;;;17.17;;
74528;SDS011;63009;52.584;5.932;2023-09-18T02:58:35;26.33;;;16.93;;
74528;SDS011;63009;52.584;5.932;2023-09-18T03:01:00;25.88;;;18.08;;
74528;SDS011;63009;52.584;5.932;2023-09-18T03:03:29;25.88;;;17.67;;
74528;SDS011;63009;52.584;5.932;2023-09-18T03:05:59;25.48;;;17.05;;
74528;SDS011;63009;52.584;5.932;2023-09-18T03:08:28;24.95;;;17.45;;
74528;SDS011;63009;52.584;5.932;2023-09-18T03:10:54;26.63;;;17.63;;
74528;SDS011;63009;52.584;5.932;2023-09-18T03:13:19;25.97;;;18.40;;
74528;SDS011;63009;52.584;5.932;2023-09-18T03:15:45;26.30;;;18.47;;
74528;SDS011;63009;52.584;5.932;2023-09-18T03:18:12;26.70;;;18.95;;
74528;SDS011;63009;52.584;5.932;2023-09-18T03:20:37;26.02;;;17.88;;
74528;SDS011;63009;52.584;5.932;2023-09-18T03:23:03;28.85;;;17.85;;
74528;SDS011;63009;52.584;5.932;2023-09-18T03:25:28;23.97;;;17.13;;
74528;SDS011;63009;52.584;5.932;2023-09-18T03:27:54;23.27;;;16.58;;
74528;SDS011;63009;52.584;5.932;2023-09-18T03:30:21;25.52;;;16.52;;
74528;SDS011;63009;52.584;5.932;2023-09-18T03:32:48;23.15;;;15.80;;
74528;SDS011;63009;52.584;5.932;2023-09-18T03:35:14;23.98;;;17.17;;
74528;SDS011;63009;52.584;5.932;2023-09-18T03:37:44;24.08;;;17.48;;
74528;SDS011;63009;52.584;5.932;2023-09-18T03:40:10;22.08;;;16.65;;
74528;SDS011;63009;52.584;5.932;2023-09-18T03:42:35;23.05;;;14.15;;
74528;SDS011;63009;52.584;5.932;2023-09-18T03:45:01;23.13;;;15.77;;
74528;SDS011;63009;52.584;5.932;2023-09-18T03:47:26;24.80;;;15.55;;
74528;SDS011;63009;52.584;5.932;2023-09-18T03:49:51;23.00;;;15.53;;
74528;SDS011;63009;52.584;5.932;2023-09-18T03:52:17;22.53;;;15.43;;
74528;SDS011;63009;52.584;5.932;2023-09-18T03:54:42;21.93;;;15.23;;
74528;SDS011;63009;52.584;5.932;2023-09-18T03:57:07;21.90;;;16.10;;
74528;SDS011;63009;52.584;5.932;2023-09-18T03:59:32;23.87;;;15.50;;
74528;SDS011;63009;52.584;5.932;2023-09-18T04:01:58;22.23;;;15.47;;
74528;SDS011;63009;52.584;5.932;2023-09-18T04:04:23;23.75;;;15.32;;
74528;SDS011;63009;52.584;5.932;2023-09-18T04:06:48;24.90;;;16.33;;
74528;SDS011;63009;52.584;5.932;2023-09-18T04:09:14;24.50;;;15.93;;
74528;SDS011;63009;52.584;5.932;2023-09-18T04:11:40;24.05;;;15.30;;
74528;SDS011;63009;52.584;5.932;2023-09-18T04:14:05;22.23;;;15.50;;
74528;SDS011;63009;52.584;5.932;2023-09-18T04:16:30;23.15;;;15.70;;
74528;SDS011;63009;52.584;5.932;2023-09-18T04:18:56;22.88;;;14.50;;
74528;SDS011;63009;52.584;5.932;2023-09-18T04:21:22;23.65;;;15.40;;
74528;SDS011;63009;52.584;5.932;2023-09-18T04:23:47;30.05;;;15.50;;
74528;SDS011;63009;52.584;5.932;2023-09-18T04:26:12;20.33;;;13.73;;
74528;SDS011;63009;52.584;5.932;2023-09-18T04:28:39;21.58;;;14.80;;
74528;SDS011;63009;52.584;5.932;2023-09-18T04:31:04;20.23;;;14.30;;
74528;SDS011;63009;52.584;5.932;2023-09-18T04:33:29;23.37;;;14.63;;
74528;SDS011;63009;52.584;5.932;2023-09-18T04:35:55;19.07;;;13.73;;
74528;SDS011;63009;52.584;5.932;2023-09-18T04:38:20;20.73;;;14.47;;
74528;SDS011;63009;52.584;5.932;2023-09-18T04:40:45;19.15;;;12.80;;
74528;SDS011;63009;52.584;5.932;2023-09-18T04:43:11;21.47;;;14.00;;
74528;SDS011;63009;52.584;5.932;2023-09-18T04:45:36;23.98;;;14.38;;
74528;SDS011;63009;52.584;5.932;2023-09-18T04:48:02;22.33;;;15.30;;
74528;SDS011;63009;52.584;5.932;2023-09-18T04:50:27;20.67;;;14.18;;
74528;SDS011;63009;52.584;5.932;2023-09-18T04:52:53;24.20;;;14.90;;
74528;SDS011;63009;52.584;5.932;2023-09-18T04:55:20;21.52;;;13.38;;
74528;SDS011;63009;52.584;5.932;2023-09-18T04:57:46;20.52;;;13.93;;
74528;SDS011;63009;52.584;5.932;2023-09-18T05:00:11;20.67;;;14.03;;
74528;SDS011;63009;52.584;5.932;2023-09-18T05:02:38;21.35;;;14.40;;
74528;SDS011;63009;52.584;5.932;2023-09-18T05:05:04;19.42;;;13.18;;
74528;SDS011;63009;52.584;5.932;2023-09-18T05:07:30;23.05;;;13.75;;
74528;SDS011;63009;52.584;5.932;2023-09-18T05:09:57;20.02;;;12.48;;
74528;SDS011;63009;52.584;5.932;2023-09-18T05:12:23;20.75;;;14.60;;
74528;SDS011;63009;52.584;5.932;2023-09-18T05:14:48;21.67;;;13.37;;
74528;SDS011;63009;52.584;5.932;2023-09-18T05:17:16;21.02;;;11.60;;
74528;SDS011;63009;52.584;5.932;2023-09-18T05:19:45;23.58;;;13.95;;
74528;SDS011;63009;52.584;5.932;2023-09-18T05:22:11;20.13;;;12.45;;
74528;SDS011;63009;52.584;5.932;2023-09-18T05:24:37;24.17;;;13.32;;
74528;SDS011;63009;52.584;5.932;2023-09-18T05:27:03;21.58;;;12.20;;
74528;SDS011;63009;52.584;5.932;2023-09-18T05:29:31;19.73;;;12.90;;
74528;SDS011;63009;52.584;5.932;2023-09-18T05:31:56;20.20;;;11.73;;
74528;SDS011;63009;52.584;5.932;2023-09-18T05:34:22;23.50;;;12.55;;
74528;SDS011;63009;52.584;5.932;2023-09-18T05:36:47;19.83;;;11.93;;
74528;SDS011;63009;52.584;5.932;2023-09-18T05:39:13;24.20;;;12.32;;
74528;SDS011;63009;52.584;5.932;2023-09-18T05:41:39;22.10;;;12.38;;
74528;SDS011;63009;52.584;5.932;2023-09-18T05:44:04;18.08;;;11.20;;
74528;SDS011;63009;52.584;5.932;2023-09-18T05:46:32;23.55;;;13.45;;
74528;SDS011;63009;52.584;5.932;2023-09-18T05:48:58;22.95;;;12.25;;
74528;SDS011;63009;52.584;5.932;2023-09-18T05:51:25;19.58;;;13.02;;
74528;SDS011;63009;52.584;5.932;2023-09-18T05:53:50;19.93;;;11.43;;
74528;SDS011;63009;52.584;5.932;2023-09-18T05:56:16;20.43;;;11.80;;
74528;SDS011;63009;52.584;5.932;2023-09-18T05:58:42;19.52;;;13.23;;
74528;SDS011;63009;52.584;5.932;2023-09-18T06:01:08;19.25;;;12.27;;
74528;SDS011;63009;52.584;5.932;2023-09-18T06:03:33;20.75;;;12.80;;
74528;SDS011;63009;52.584;5.932;2023-09-18T06:06:01;20.20;;;12.15;;
74528;SDS011;63009;52.584;5.932;2023-09-18T06:08:27;21.23;;;13.00;;
74528;SDS011;63009;52.584;5.932;2023-09-18T06:10:53;20.30;;;13.38;;
74528;SDS011;63009;52.584;5.932;2023-09-18T06:13:20;21.23;;;12.85;;
74528;SDS011;63009;52.584;5.932;2023-09-18T06:15:45;21.38;;;15.10;;
74528;SDS011;63009;52.584;5.932;2023-09-18T06:18:11;23.02;;;13.32;;
74528;SDS011;63009;52.584;5.932;2023-09-18T06:20:36;23.63;;;13.03;;
74528;SDS011;63009;52.584;5.932;2023-09-18T06:23:02;19.70;;;12.95;;
74528;SDS011;63009;52.584;5.932;2023-09-18T06:25:28;20.40;;;13.25;;
74528;SDS011;63009;52.584;5.932;2023-09-18T06:27:56;23.60;;;14.88;;
74528;SDS011;63009;52.584;5.932;2023-09-18T06:30:21;19.50;;;12.45;;
74528;SDS011;63009;52.584;5.932;2023-09-18T06:32:46;20.13;;;12.93;;
74528;SDS011;63009;52.584;5.932;2023-09-18T06:35:12;19.38;;;12.30;;
74528;SDS011;63009;52.584;5.932;2023-09-18T06:37:37;16.65;;;9.90;;
74528;SDS011;63009;52.584;5.932;2023-09-18T06:40:03;18.25;;;10.35;;
74528;SDS011;63009;52.584;5.932;2023-09-18T06:42:29;19.90;;;11.05;;
74528;SDS011;63009;52.584;5.932;2023-09-18T06:44:54;17.13;;;9.87;;
74528;SDS011;63009;52.584;5.932;2023-09-18T06:47:20;19.70;;;11.82;;
74528;SDS011;63009;52.584;5.932;2023-09-18T06:49:46;17.20;;;10.27;;
74528;SDS011;63009;52.584;5.932;2023-09-18T06:52:12;16.63;;;9.48;;
74528;SDS011;63009;52.584;5.932;2023-09-18T06:54:38;17.25;;;10.23;;
74528;SDS011;63009;52.584;5.932;2023-09-18T06:57:03;14.05;;;8.43;;
74528;SDS011;63009;52.584;5.932;2023-09-18T06:59:28;15.63;;;9.20;;
74528;SDS011;63009;52.584;5.932;2023-09-18T07:01:54;15.57;;;8.52;;
74528;SDS011;63009;52.584;5.932;2023-09-18T07:04:20;15.57;;;7.88;;
74528;SDS011;63009;52.584;5.932;2023-09-18T07:06:46;11.63;;;6.32;;
74528;SDS011;63009;52.584;5.932;2023-09-18T07:09:11;9.27;;;4.63;;
74528;SDS011;63009;52.584;5.932;2023-09-18T07:11:37;12.00;;;4.72;;
74528;SDS011;63009;52.584;5.932;2023-09-18T07:14:03;11.82;;;5.55;;
74528;SDS011;63009;52.584;5.932;2023-09-18T07:16:30;9.95;;;3.72;;
74528;SDS011;63009;52.584;5.932;2023-09-18T07:18:56;9.10;;;4.03;;
74528;SDS011;63009;52.584;5.932;2023-09-18T07:21:21;10.17;;;4.67;;
74528;SDS011;63009;52.584;5.932;2023-09-18T07:23:46;9.77;;;4.70;;
74528;SDS011;63009;52.584;5.932;2023-09-18T07:26:12;12.35;;;4.70;;
74528;SDS011;63009;52.584;5.932;2023-09-18T07:28:37;10.93;;;4.93;;
74528;SDS011;63009;52.584;5.932;2023-09-18T07:31:07;10.02;;;5.22;;
74528;SDS011;63009;52.584;5.932;2023-09-18T07:33:33;9.45;;;5.30;;
74528;SDS011;63009;52.584;5.932;2023-09-18T07:35:59;11.77;;;6.32;;
74528;SDS011;63009;52.584;5.932;2023-09-18T07:38:25;13.30;;;6.95;;
74528;SDS011;63009;52.584;5.932;2023-09-18T07:40:50;15.50;;;7.17;;
74528;SDS011;63009;52.584;5.932;2023-09-18T07:43:15;11.73;;;7.22;;
74528;SDS011;63009;52.584;5.932;2023-09-18T07:45:41;13.00;;;7.53;;
74528;SDS011;63009;52.584;5.932;2023-09-18T07:48:06;13.20;;;8.07;;
74528;SDS011;63009;52.584;5.932;2023-09-18T07:50:32;14.25;;;7.65;;
74528;SDS011;63009;52.584;5.932;2023-09-18T07:52:58;12.82;;;7.65;;
74528;SDS011;63009;52.584;5.932;2023-09-18T07:55:24;12.93;;;6.88;;
74528;SDS011;63009;52.584;5.932;2023-09-18T07:57:49;15.13;;;8.20;;
74528;SDS011;63009;52.584;5.932;2023-09-18T08:00:16;13.15;;;7.93;;
74528;SDS011;63009;52.584;5.932;2023-09-18T08:02:42;14.00;;;8.15;;
74528;SDS011;63009;52.584;5.932;2023-09-18T08:05:07;13.65;;;7.03;;
74528;SDS011;63009;52.584;5.932;2023-09-18T08:07:33;13.55;;;7.75;;
74528;SDS011;63009;52.584;5.932;2023-09-18T08:10:00;13.77;;;7.97;;
74528;SDS011;63009;52.584;5.932;2023-09-18T08:12:27;13.63;;;7.28;;
74528;SDS011;63009;52.584;5.932;2023-09-18T08:14:52;14.23;;;7.30;;
74528;SDS011;63009;52.584;5.932;2023-09-18T08:17:17;14.25;;;7.18;;
74528;SDS011;63009;52.584;5.932;2023-09-18T08:19:43;14.77;;;8.03;;
74528;SDS011;63009;52.584;5.932;2023-09-18T08:22:09;14.98;;;8.75;;
74528;SDS011;63009;52.584;5.932;2023-09-18T08:24:36;13.70;;;7.82;;
74528;SDS011;63009;52.584;5.932;2023-09-18T08:27:02;16.70;;;8.30;;
74528;SDS011;63009;52.584;5.932;2023-09-18T08:29:28;16.13;;;8.90;;
74528;SDS011;63009;52.584;5.932;2023-09-18T08:31:53;16.50;;;9.40;;
74528;SDS011;63009;52.584;5.932;2023-09-18T08:34:19;16.33;;;9.77;;
74528;SDS011;63009;52.584;5.932;2023-09-18T08:36:45;14.82;;;9.45;;
74528;SDS011;63009;52.584;5.932;2023-09-18T08:39:10;15.80;;;9.67;;
74528;SDS011;63009;52.584;5.932;2023-09-18T08:41:38;18.35;;;9.85;;
74528;SDS011;63009;52.584;5.932;2023-09-18T08:44:08;18.33;;;10.50;;
74528;SDS011;63009;52.584;5.932;2023-09-18T08:46:35;18.35;;;9.80;;
74528;SDS011;63009;52.584;5.932;2023-09-18T08:49:01;16.33;;;9.25;;
74528;SDS011;63009;52.584;5.932;2023-09-18T08:51:27;17.30;;;9.88;;
74528;SDS011;63009;52.584;5.932;2023-09-18T08:53:54;14.77;;;9.88;;
74528;SDS011;63009;52.584;5.932;2023-09-18T08:56:21;15.40;;;9.85;;
74528;SDS011;63009;52.584;5.932;2023-09-18T08:58:47;18.40;;;10.38;;
74528;SDS011;63009;52.584;5.932;2023-09-18T09:01:12;15.18;;;10.05;;
74528;SDS011;63009;52.584;5.932;2023-09-18T09:03:38;15.82;;;9.57;;
74528;SDS011;63009;52.584;5.932;2023-09-18T09:06:08;16.38;;;9.68;;
74528;SDS011;63009;52.584;5.932;2023-09-18T09:08:34;14.32;;;8.55;;
74528;SDS011;63009;52.584;5.932;2023-09-18T09:11:01;15.98;;;10.07;;
74528;SDS011;63009;52.584;5.932;2023-09-18T09:13:26;14.70;;;8.80;;
74528;SDS011;63009;52.584;5.932;2023-09-18T09:15:52;14.13;;;8.48;;
74528;SDS011;63009;52.584;5.932;2023-09-18T09:18:20;12.80;;;8.40;;
74528;SDS011;63009;52.584;5.932;2023-09-18T09:20:57;15.52;;;8.25;;
74528;SDS011;63009;52.584;5.932;2023-09-18T09:23:28;14.25;;;9.35;;
74528;SDS011;63009;52.584;5.932;2023-09-18T09:26:12;14.23;;;8.77;;
74528;SDS011;63009;52.584;5.932;2023-09-18T09:28:38;13.95;;;8.55;;
74528;SDS011;63009;52.584;5.932;2023-09-18T09:31:04;15.00;;;8.75;;
74528;SDS011;63009;52.584;5.932;2023-09-18T09:33:30;14.43;;;8.10;;
74528;SDS011;63009;52.584;5.932;2023-09-18T09:35:56;11.90;;;6.88;;
74528;SDS011;63009;52.584;5.932;2023-09-18T09:38:28;10.68;;;6.70;;
74528;SDS011;63009;52.584;5.932;2023-09-18T09:40:56;14.95;;;7.00;;
74528;SDS011;63009;52.584;5.932;2023-09-18T09:43:22;11.57;;;7.28;;
74528;SDS011;63009;52.584;5.932;2023-09-18T09:45:47;12.87;;;7.50;;
74528;SDS011;63009;52.584;5.932;2023-09-18T09:48:13;12.65;;;6.70;;
74528;SDS011;63009;52.584;5.932;2023-09-18T09:50:45;11.85;;;7.10;;
74528;SDS011;63009;52.584;5.932;2023-09-18T09:53:13;11.32;;;7.45;;
74528;SDS011;63009;52.584;5.932;2023-09-18T09:55:38;13.90;;;6.85;;
74528;SDS011;63009;52.584;5.932;2023-09-18T09:58:05;13.40;;;8.38;;
74528;SDS011;63009;52.584;5.932;2023-09-18T10:00:33;22.10;;;7.18;;
74528;SDS011;63009;52.584;5.932;2023-09-18T10:03:06;10.45;;;6.28;;
74528;SDS011;63009;52.584;5.932;2023-09-18T10:05:37;11.27;;;5.45;;
74528;SDS011;63009;52.584;5.932;2023-09-18T10:10:40;10.23;;;5.95;;
74528;SDS011;63009;52.584;5.932;2023-09-18T10:13:14;10.35;;;5.88;;
74528;SDS011;63009;52.584;5.932;2023-09-18T10:15:42;12.68;;;5.70;;
74528;SDS011;63009;52.584;5.932;2023-09-18T10:18:16;9.82;;;5.47;;
74528;SDS011;63009;52.584;5.932;2023-09-18T10:20:45;14.70;;;4.88;;
74528;SDS011;63009;52.584;5.932;2023-09-18T10:23:19;10.35;;;5.43;;
74528;SDS011;63009;52.584;5.932;2023-09-18T10:25:53;9.38;;;4.50;;
74528;SDS011;63009;52.584;5.932;2023-09-18T10:28:24;8.45;;;4.85;;
74528;SDS011;63009;52.584;5.932;2023-09-18T10:30:52;10.73;;;4.47;;
74528;SDS011;63009;52.584;5.932;2023-09-18T10:33:21;11.23;;;4.70;;
74528;SDS011;63009;52.584;5.932;2023-09-18T10:35:46;9.20;;;4.43;;
74528;SDS011;63009;52.584;5.932;2023-09-18T10:38:13;10.57;;;4.40;;
74528;SDS011;63009;52.584;5.932;2023-09-18T10:43:06;8.77;;;5.30;;
74528;SDS011;63009;52.584;5.932;2023-09-18T10:45:34;11.05;;;5.07;;
74528;SDS011;63009;52.584;5.932;2023-09-18T10:48:00;8.63;;;5.05;;
74528;SDS011;63009;52.584;5.932;2023-09-18T10:50:27;11.07;;;5.22;;
74528;SDS011;63009;52.584;5.932;2023-09-18T10:52:56;9.75;;;5.80;;
74528;SDS011;63009;52.584;5.932;2023-09-18T10:55:22;10.05;;;5.40;;
74528;SDS011;63009;52.584;5.932;2023-09-18T10:57:52;9.10;;;4.25;;
74528;SDS011;63009;52.584;5.932;2023-09-18T11:00:19;8.82;;;4.35;;
74528;SDS011;63009;52.584;5.932;2023-09-18T11:02:53;9.90;;;4.65;;
74528;SDS011;63009;52.584;5.932;2023-09-18T11:11:02;10.48;;;4.18;;
74528;SDS011;63009;52.584;5.932;2023-09-18T11:13:34;8.23;;;4.22;;
74528;SDS011;63009;52.584;5.932;2023-09-18T11:16:02;10.90;;;4.60;;
74528;SDS011;63009;52.584;5.932;2023-09-18T11:21:24;9.75;;;5.50;;
74528;SDS011;63009;52.584;5.932;2023-09-18T11:23:58;10.07;;;5.95;;
74528;SDS011;63009;52.584;5.932;2023-09-18T11:26:28;8.18;;;4.90;;
74528;SDS011;63009;52.584;5.932;2023-09-18T11:28:58;10.15;;;5.50;;
74528;SDS011;63009;52.584;5.932;2023-09-18T11:31:48;10.35;;;5.68;;
74528;SDS011;63009;52.584;5.932;2023-09-18T11:34:28;10.85;;;6.00;;
74528;SDS011;63009;52.584;5.932;2023-09-18T11:37:00;10.25;;;5.40;;
74528;SDS011;63009;52.584;5.932;2023-09-18T11:39:37;8.65;;;5.00;;
74528;SDS011;63009;52.584;5.932;2023-09-18T11:42:12;9.52;;;6.20;;
74528;SDS011;63009;52.584;5.932;2023-09-18T11:44:39;11.38;;;6.30;;
74528;SDS011;63009;52.584;5.932;2023-09-18T11:47:12;8.98;;;5.75;;
74528;SDS011;63009;52.584;5.932;2023-09-18T11:49:52;10.02;;;5.47;;
74528;SDS011;63009;52.584;5.932;2023-09-18T11:52:24;9.30;;;5.30;;
74528;SDS011;63009;52.584;5.932;2023-09-18T11:54:51;9.68;;;5.43;;
74528;SDS011;63009;52.584;5.932;2023-09-18T11:57:18;8.80;;;5.25;;
74528;SDS011;63009;52.584;5.932;2023-09-18T11:59:44;10.50;;;5.13;;
74528;SDS011;63009;52.584;5.932;2023-09-18T12:02:25;9.73;;;4.90;;
74528;SDS011;63009;52.584;5.932;2023-09-18T12:05:04;8.52;;;4.90;;
74528;SDS011;63009;52.584;5.932;2023-09-18T12:07:31;11.52;;;5.07;;
74528;SDS011;63009;52.584;5.932;2023-09-18T12:09:57;10.45;;;4.65;;
74528;SDS011;63009;52.584;5.932;2023-09-18T12:12:22;9.80;;;5.68;;
74528;SDS011;63009;52.584;5.932;2023-09-18T12:14:47;11.65;;;4.80;;
74528;SDS011;63009;52.584;5.932;2023-09-18T12:17:16;9.18;;;4.50;;
74528;SDS011;63009;52.584;5.932;2023-09-18T12:19:53;11.57;;;5.47;;
74528;SDS011;63009;52.584;5.932;2023-09-18T12:22:25;9.55;;;5.00;;
74528;SDS011;63009;52.584;5.932;2023-09-18T12:24:51;12.38;;;4.93;;
74528;SDS011;63009;52.584;5.932;2023-09-18T12:27:17;11.20;;;4.97;;
74528;SDS011;63009;52.584;5.932;2023-09-18T12:29:42;11.23;;;5.13;;
74528;SDS011;63009;52.584;5.932;2023-09-18T12:32:11;9.27;;;4.95;;
74528;SDS011;63009;52.584;5.932;2023-09-18T12:34:42;8.07;;;4.32;;
74528;SDS011;63009;52.584;5.932;2023-09-18T12:37:08;10.25;;;5.13;;
74528;SDS011;63009;52.584;5.932;2023-09-18T12:39:36;8.18;;;4.43;;
74528;SDS011;63009;52.584;5.932;2023-09-18T12:42:02;10.63;;;4.88;;
74528;SDS011;63009;52.584;5.932;2023-09-18T12:44:29;9.43;;;5.10;;
74528;SDS011;63009;52.584;5.932;2023-09-18T12:46:54;8.10;;;4.28;;
74528;SDS011;63009;52.584;5.932;2023-09-18T12:49:20;11.63;;;5.05;;
74528;SDS011;63009;52.584;5.932;2023-09-18T12:51:58;9.88;;;5.78;;
74528;SDS011;63009;52.584;5.932;2023-09-18T12:54:41;8.32;;;4.75;;
74528;SDS011;63009;52.584;5.932;2023-09-18T12:57:09;10.32;;;4.47;;
74528;SDS011;63009;52.584;5.932;2023-09-18T12:59:36;10.32;;;4.85;;
74528;SDS011;63009;52.584;5.932;2023-09-18T13:02:03;10.73;;;4.45;;
74528;SDS011;63009;52.584;5.932;2023-09-18T13:04:30;13.30;;;4.57;;
74528;SDS011;63009;52.584;5.932;2023-09-18T13:07:03;9.85;;;3.97;;
74528;SDS011;63009;52.584;5.932;2023-09-18T13:09:28;10.52;;;4.82;;
74528;SDS011;63009;52.584;5.932;2023-09-18T13:11:55;10.37;;;5.63;;
74528;SDS011;63009;52.584;5.932;2023-09-18T13:14:20;11.52;;;5.70;;
74528;SDS011;63009;52.584;5.932;2023-09-18T13:16:46;10.80;;;4.77;;
74528;SDS011;63009;52.584;5.932;2023-09-18T13:19:11;10.43;;;4.75;;
74528;SDS011;63009;52.584;5.932;2023-09-18T13:21:36;10.97;;;5.77;;
74528;SDS011;63009;52.584;5.932;2023-09-18T13:24:05;10.13;;;5.35;;
74528;SDS011;63009;52.584;5.932;2023-09-18T13:26:31;10.05;;;5.40;;
74528;SDS011;63009;52.584;5.932;2023-09-18T13:28:56;10.27;;;5.60;;
74528;SDS011;63009;52.584;5.932;2023-09-18T13:31:21;9.88;;;5.32;;
74528;SDS011;63009;52.584;5.932;2023-09-18T13:33:47;8.63;;;4.70;;
74528;SDS011;63009;52.584;5.932;2023-09-18T13:36:12;10.87;;;4.80;;
74528;SDS011;63009;52.584;5.932;2023-09-18T13:38:37;9.20;;;4.53;;
74528;SDS011;63009;52.584;5.932;2023-09-18T13:41:02;8.40;;;4.43;;
74528;SDS011;63009;52.584;5.932;2023-09-18T13:43:30;10.10;;;4.55;;
74528;SDS011;63009;52.584;5.932;2023-09-18T13:45:59;8.25;;;4.22;;
74528;SDS011;63009;52.584;5.932;2023-09-18T13:48:25;9.35;;;4.22;;
74528;SDS011;63009;52.584;5.932;2023-09-18T13:50:51;7.15;;;3.53;;
74528;SDS011;63009;52.584;5.932;2023-09-18T13:53:17;8.10;;;3.70;;
74528;SDS011;63009;52.584;5.932;2023-09-18T13:55:43;8.70;;;3.65;;
74528;SDS011;63009;52.584;5.932;2023-09-18T13:58:08;8.00;;;3.93;;
74528;SDS011;63009;52.584;5.932;2023-09-18T14:00:34;7.95;;;3.60;;
74528;SDS011;63009;52.584;5.932;2023-09-18T14:03:00;9.98;;;3.55;;
74528;SDS011;63009;52.584;5.932;2023-09-18T14:05:25;9.65;;;3.78;;
74528;SDS011;63009;52.584;5.932;2023-09-18T14:07:53;10.50;;;3.47;;
74528;SDS011;63009;52.584;5.932;2023-09-18T14:10:24;7.90;;;3.05;;
74528;SDS011;63009;52.584;5.932;2023-09-18T14:12:49;7.80;;;3.40;;
74528;SDS011;63009;52.584;5.932;2023-09-18T14:15:15;8.40;;;3.38;;
74528;SDS011;63009;52.584;5.932;2023-09-18T14:17:40;9.70;;;3.65;;
74528;SDS011;63009;52.584;5.932;2023-09-18T14:20:06;8.87;;;3.90;;
74528;SDS011;63009;52.584;5.932;2023-09-18T14:22:35;7.85;;;3.95;;
74528;SDS011;63009;52.584;5.932;2023-09-18T14:25:01;9.48;;;3.85;;
74528;SDS011;63009;52.584;5.932;2023-09-18T14:27:30;8.30;;;3.60;;
74528;SDS011;63009;52.584;5.932;2023-09-18T14:29:55;8.98;;;3.65;;
74528;SDS011;63009;52.584;5.932;2023-09-18T14:32:21;8.27;;;4.20;;
74528;SDS011;63009;52.584;5.932;2023-09-18T14:34:46;7.97;;;3.42;;
74528;SDS011;63009;52.584;5.932;2023-09-18T14:37:12;9.40;;;3.13;;
74528;SDS011;63009;52.584;5.932;2023-09-18T14:39:37;8.27;;;3.23;;
74528;SDS011;63009;52.584;5.932;2023-09-18T14:42:02;7.57;;;3.10;;
74528;SDS011;63009;52.584;5.932;2023-09-18T14:44:28;6.90;;;2.90;;